sensor_id;sensor_type;location;lat;lon;timestamp;P1;durP1;ratioP1;P2;durP2;ratioP2
63975;SDS011;50167;47.958;21.780;2022-11-15T17:01:33;58.37;;;37.40;;
63975;SDS011;50167;47.958;21.780;2022-11-15T17:04:08;80.87;;;46.70;;
63975;SDS011;50167;47.958;21.780;2022-11-15T17:09:07;88.93;;;54.07;;
63975;SDS011;50167;47.958;21.780;2022-11-15T17:11:37;94.80;;;60.47;;
63975;SDS011;50167;47.958;21.780;2022-11-15T17:14:06;112.77;;;67.80;;
63975;SDS011;50167;47.958;21.780;2022-11-15T17:16:32;160.17;;;97.53;;
63975;SDS011;50167;47.958;21.780;2022-11-15T17:19:00;212.37;;;128.87;;
63975;SDS011;50167;47.958;21.780;2022-11-15T17:21:26;202.67;;;121.93;;
63975;SDS011;50167;47.958;21.780;2022-11-15T17:23:53;179.23;;;108.63;;
63975;SDS011;50167;47.958;21.780;2022-11-15T17:26:19;177.90;;;104.93;;
63975;SDS011;50167;47.958;21.780;2022-11-15T17:28:46;158.30;;;95.73;;
63975;SDS011;50167;47.958;21.780;2022-11-15T17:31:12;156.20;;;93.13;;
63975;SDS011;50167;47.958;21.780;2022-11-15T17:33:39;159.13;;;96.47;;
63975;SDS011;50167;47.958;21.780;2022-11-15T17:36:06;147.83;;;94.67;;
63975;SDS011;50167;47.958;21.780;2022-11-15T17:38:36;135.40;;;89.20;;
63975;SDS011;50167;47.958;21.780;2022-11-15T17:41:20;142.70;;;89.50;;
63975;SDS011;50167;47.958;21.780;2022-11-15T17:43:40;149.93;;;87.73;;
63975;SDS011;50167;47.958;21.780;2022-11-15T17:46:08;138.27;;;88.67;;
63975;SDS011;50167;47.958;21.780;2022-11-15T17:48:43;131.73;;;84.73;;
63975;SDS011;50167;47.958;21.780;2022-11-15T17:51:11;137.53;;;84.97;;
63975;SDS011;50167;47.958;21.780;2022-11-15T17:53:41;136.17;;;86.93;;
63975;SDS011;50167;47.958;21.780;2022-11-15T17:56:10;138.17;;;90.87;;
63975;SDS011;50167;47.958;21.780;2022-11-15T17:58:40;117.10;;;76.15;;
63975;SDS011;50167;47.958;21.780;2022-11-15T18:01:07;105.17;;;70.40;;
63975;SDS011;50167;47.958;21.780;2022-11-15T18:03:44;97.60;;;59.73;;
63975;SDS011;50167;47.958;21.780;2022-11-15T18:06:11;89.37;;;57.23;;
63975;SDS011;50167;47.958;21.780;2022-11-15T18:08:38;92.57;;;57.53;;
63975;SDS011;50167;47.958;21.780;2022-11-15T18:11:08;81.20;;;52.33;;
63975;SDS011;50167;47.958;21.780;2022-11-15T18:13:40;102.27;;;64.40;;
63975;SDS011;50167;47.958;21.780;2022-11-15T18:16:10;85.90;;;55.23;;
63975;SDS011;50167;47.958;21.780;2022-11-15T18:18:39;87.12;;;57.90;;
63975;SDS011;50167;47.958;21.780;2022-11-15T18:21:09;84.20;;;56.60;;
63975;SDS011;50167;47.958;21.780;2022-11-15T18:23:40;83.77;;;54.23;;
63975;SDS011;50167;47.958;21.780;2022-11-15T18:26:10;78.83;;;50.20;;
63975;SDS011;50167;47.958;21.780;2022-11-15T18:28:38;80.47;;;51.83;;
63975;SDS011;50167;47.958;21.780;2022-11-15T18:31:14;79.10;;;54.13;;
63975;SDS011;50167;47.958;21.780;2022-11-15T18:33:43;86.80;;;55.10;;
63975;SDS011;50167;47.958;21.780;2022-11-15T18:36:14;95.43;;;63.50;;
63975;SDS011;50167;47.958;21.780;2022-11-15T18:38:45;185.00;;;110.80;;
63975;SDS011;50167;47.958;21.780;2022-11-15T18:41:13;463.63;;;279.73;;
63975;SDS011;50167;47.958;21.780;2022-11-15T18:43:53;522.33;;;320.25;;
63975;SDS011;50167;47.958;21.780;2022-11-15T18:46:22;413.03;;;242.37;;
63975;SDS011;50167;47.958;21.780;2022-11-15T18:48:51;249.02;;;146.72;;
63975;SDS011;50167;47.958;21.780;2022-11-15T18:51:20;178.63;;;112.83;;
63975;SDS011;50167;47.958;21.780;2022-11-15T18:53:53;97.78;;;64.58;;
63975;SDS011;50167;47.958;21.780;2022-11-15T18:56:22;67.70;;;46.50;;
63975;SDS011;50167;47.958;21.780;2022-11-15T18:58:51;62.77;;;45.20;;
63975;SDS011;50167;47.958;21.780;2022-11-15T19:01:21;70.40;;;46.30;;
63975;SDS011;50167;47.958;21.780;2022-11-15T19:03:51;71.53;;;50.60;;
63975;SDS011;50167;47.958;21.780;2022-11-15T19:06:22;72.30;;;50.90;;
63975;SDS011;50167;47.958;21.780;2022-11-15T19:08:52;79.90;;;49.77;;
63975;SDS011;50167;47.958;21.780;2022-11-15T19:11:21;72.57;;;44.47;;
63975;SDS011;50167;47.958;21.780;2022-11-15T19:14:01;73.47;;;48.13;;
63975;SDS011;50167;47.958;21.780;2022-11-15T19:16:31;76.03;;;49.27;;
63975;SDS011;50167;47.958;21.780;2022-11-15T19:19:02;84.17;;;54.08;;
63975;SDS011;50167;47.958;21.780;2022-11-15T19:21:31;88.95;;;58.60;;
63975;SDS011;50167;47.958;21.780;2022-11-15T19:23:58;90.47;;;58.93;;
63975;SDS011;50167;47.958;21.780;2022-11-15T19:26:26;78.77;;;54.53;;
63975;SDS011;50167;47.958;21.780;2022-11-15T19:28:54;92.00;;;62.23;;
63975;SDS011;50167;47.958;21.780;2022-11-15T19:31:23;91.23;;;59.37;;
63975;SDS011;50167;47.958;21.780;2022-11-15T19:33:51;88.27;;;55.50;;
63975;SDS011;50167;47.958;21.780;2022-11-15T19:36:20;88.93;;;56.77;;
63975;SDS011;50167;47.958;21.780;2022-11-15T19:38:51;101.50;;;63.17;;
63975;SDS011;50167;47.958;21.780;2022-11-15T19:41:19;99.83;;;61.73;;
63975;SDS011;50167;47.958;21.780;2022-11-15T19:43:48;90.40;;;57.90;;
63975;SDS011;50167;47.958;21.780;2022-11-15T19:46:17;84.13;;;56.27;;
63975;SDS011;50167;47.958;21.780;2022-11-15T19:48:46;72.90;;;50.27;;
63975;SDS011;50167;47.958;21.780;2022-11-15T19:51:14;68.73;;;47.33;;
63975;SDS011;50167;47.958;21.780;2022-11-15T19:53:43;65.17;;;43.87;;
63975;SDS011;50167;47.958;21.780;2022-11-15T19:56:11;58.37;;;43.73;;
63975;SDS011;50167;47.958;21.780;2022-11-15T19:58:41;68.15;;;45.92;;
63975;SDS011;50167;47.958;21.780;2022-11-15T20:01:27;61.83;;;42.90;;
63975;SDS011;50167;47.958;21.780;2022-11-15T20:03:56;60.17;;;44.13;;
63975;SDS011;50167;47.958;21.780;2022-11-15T20:06:25;65.90;;;46.93;;
63975;SDS011;50167;47.958;21.780;2022-11-15T20:11:21;64.43;;;42.73;;
63975;SDS011;50167;47.958;21.780;2022-11-15T20:13:48;65.03;;;45.50;;
63975;SDS011;50167;47.958;21.780;2022-11-15T20:16:16;68.23;;;45.43;;
63975;SDS011;50167;47.958;21.780;2022-11-15T20:18:47;62.17;;;43.80;;
63975;SDS011;50167;47.958;21.780;2022-11-15T20:21:14;68.67;;;44.17;;
63975;SDS011;50167;47.958;21.780;2022-11-15T20:23:42;65.83;;;45.33;;
63975;SDS011;50167;47.958;21.780;2022-11-15T20:26:09;93.83;;;53.37;;
63975;SDS011;50167;47.958;21.780;2022-11-15T20:28:36;79.50;;;52.23;;
63975;SDS011;50167;47.958;21.780;2022-11-15T20:31:04;108.00;;;67.73;;
63975;SDS011;50167;47.958;21.780;2022-11-15T20:33:31;88.40;;;57.90;;
63975;SDS011;50167;47.958;21.780;2022-11-15T20:36:01;78.73;;;53.97;;
63975;SDS011;50167;47.958;21.780;2022-11-15T20:38:32;70.07;;;49.80;;
63975;SDS011;50167;47.958;21.780;2022-11-15T20:40:58;67.87;;;46.07;;
63975;SDS011;50167;47.958;21.780;2022-11-15T20:43:24;78.90;;;47.70;;
63975;SDS011;50167;47.958;21.780;2022-11-15T20:45:50;60.50;;;42.90;;
63975;SDS011;50167;47.958;21.780;2022-11-15T20:48:16;60.53;;;43.03;;
63975;SDS011;50167;47.958;21.780;2022-11-15T20:50:43;63.33;;;45.00;;
63975;SDS011;50167;47.958;21.780;2022-11-15T20:53:12;62.50;;;43.70;;
63975;SDS011;50167;47.958;21.780;2022-11-15T20:55:42;59.83;;;43.60;;
63975;SDS011;50167;47.958;21.780;2022-11-15T20:58:14;61.90;;;42.77;;
63975;SDS011;50167;47.958;21.780;2022-11-15T21:00:42;61.33;;;42.37;;
63975;SDS011;50167;47.958;21.780;2022-11-15T21:03:09;63.03;;;42.13;;
63975;SDS011;50167;47.958;21.780;2022-11-15T21:05:37;64.83;;;41.80;;
63975;SDS011;50167;47.958;21.780;2022-11-15T21:08:06;58.13;;;40.77;;
63975;SDS011;50167;47.958;21.780;2022-11-15T21:10:33;64.13;;;43.47;;
63975;SDS011;50167;47.958;21.780;2022-11-15T21:13:18;72.70;;;48.13;;
63975;SDS011;50167;47.958;21.780;2022-11-15T21:15:45;74.87;;;50.27;;
63975;SDS011;50167;47.958;21.780;2022-11-15T21:18:11;79.13;;;51.33;;
63975;SDS011;50167;47.958;21.780;2022-11-15T21:20:38;74.00;;;48.90;;
63975;SDS011;50167;47.958;21.780;2022-11-15T21:23:04;74.17;;;49.20;;
63975;SDS011;50167;47.958;21.780;2022-11-15T21:25:31;79.13;;;49.70;;
63975;SDS011;50167;47.958;21.780;2022-11-15T21:27:58;80.50;;;50.67;;
63975;SDS011;50167;47.958;21.780;2022-11-15T21:30:30;81.70;;;51.43;;
63975;SDS011;50167;47.958;21.780;2022-11-15T21:32:56;84.40;;;52.27;;
63975;SDS011;50167;47.958;21.780;2022-11-15T21:35:23;81.63;;;52.00;;
63975;SDS011;50167;47.958;21.780;2022-11-15T21:37:49;79.87;;;53.37;;
63975;SDS011;50167;47.958;21.780;2022-11-15T21:40:15;80.93;;;54.50;;
63975;SDS011;50167;47.958;21.780;2022-11-15T21:42:41;80.30;;;53.03;;
63975;SDS011;50167;47.958;21.780;2022-11-15T21:45:08;74.67;;;49.83;;
63975;SDS011;50167;47.958;21.780;2022-11-15T21:47:35;77.07;;;52.60;;
63975;SDS011;50167;47.958;21.780;2022-11-15T21:50:01;75.40;;;51.10;;
63975;SDS011;50167;47.958;21.780;2022-11-15T21:52:28;70.63;;;47.33;;
63975;SDS011;50167;47.958;21.780;2022-11-15T21:54:54;78.33;;;48.20;;
63975;SDS011;50167;47.958;21.780;2022-11-15T21:57:20;73.97;;;49.40;;
63975;SDS011;50167;47.958;21.780;2022-11-15T21:59:46;78.37;;;52.73;;
63975;SDS011;50167;47.958;21.780;2022-11-15T22:02:31;84.27;;;55.40;;
63975;SDS011;50167;47.958;21.780;2022-11-15T22:04:57;88.00;;;55.17;;
63975;SDS011;50167;47.958;21.780;2022-11-15T22:07:23;87.27;;;54.23;;
63975;SDS011;50167;47.958;21.780;2022-11-15T22:09:49;77.63;;;51.70;;
63975;SDS011;50167;47.958;21.780;2022-11-15T22:12:16;73.63;;;49.27;;
63975;SDS011;50167;47.958;21.780;2022-11-15T22:14:42;71.90;;;46.63;;
63975;SDS011;50167;47.958;21.780;2022-11-15T22:17:08;70.80;;;47.03;;
63975;SDS011;50167;47.958;21.780;2022-11-15T22:19:34;75.20;;;48.47;;
63975;SDS011;50167;47.958;21.780;2022-11-15T22:22:00;69.80;;;49.40;;
63975;SDS011;50167;47.958;21.780;2022-11-15T22:24:27;72.30;;;47.83;;
63975;SDS011;50167;47.958;21.780;2022-11-15T22:26:53;67.73;;;45.73;;
63975;SDS011;50167;47.958;21.780;2022-11-15T22:29:19;74.53;;;49.97;;
63975;SDS011;50167;47.958;21.780;2022-11-15T22:31:45;73.30;;;51.07;;
63975;SDS011;50167;47.958;21.780;2022-11-15T22:34:11;71.50;;;44.70;;
63975;SDS011;50167;47.958;21.780;2022-11-15T22:36:38;68.70;;;45.10;;
63975;SDS011;50167;47.958;21.780;2022-11-15T22:39:06;58.47;;;40.93;;
63975;SDS011;50167;47.958;21.780;2022-11-15T22:41:32;57.80;;;40.63;;
63975;SDS011;50167;47.958;21.780;2022-11-15T22:43:58;58.43;;;38.83;;
63975;SDS011;50167;47.958;21.780;2022-11-15T22:46:25;52.67;;;38.83;;
63975;SDS011;50167;47.958;21.780;2022-11-15T22:48:52;60.90;;;42.90;;
63975;SDS011;50167;47.958;21.780;2022-11-15T22:51:18;64.80;;;41.27;;
63975;SDS011;50167;47.958;21.780;2022-11-15T22:53:45;60.73;;;40.70;;
63975;SDS011;50167;47.958;21.780;2022-11-15T22:56:11;58.03;;;37.80;;
63975;SDS011;50167;47.958;21.780;2022-11-15T22:58:37;54.57;;;37.00;;
63975;SDS011;50167;47.958;21.780;2022-11-15T23:01:04;57.33;;;36.77;;
63975;SDS011;50167;47.958;21.780;2022-11-15T23:03:31;51.53;;;35.17;;
63975;SDS011;50167;47.958;21.780;2022-11-15T23:06:01;51.53;;;36.17;;
63975;SDS011;50167;47.958;21.780;2022-11-15T23:08:30;53.90;;;37.60;;
63975;SDS011;50167;47.958;21.780;2022-11-15T23:11:00;53.83;;;36.57;;
63975;SDS011;50167;47.958;21.780;2022-11-15T23:13:48;56.68;;;38.80;;
63975;SDS011;50167;47.958;21.780;2022-11-15T23:16:16;50.50;;;35.13;;
63975;SDS011;50167;47.958;21.780;2022-11-15T23:19:05;51.80;;;35.13;;
63975;SDS011;50167;47.958;21.780;2022-11-15T23:21:35;51.00;;;34.73;;
63975;SDS011;50167;47.958;21.780;2022-11-15T23:24:23;54.00;;;34.80;;
63975;SDS011;50167;47.958;21.780;2022-11-15T23:26:50;46.73;;;33.10;;
63975;SDS011;50167;47.958;21.780;2022-11-15T23:29:21;48.02;;;35.70;;
63975;SDS011;50167;47.958;21.780;2022-11-15T23:31:49;54.10;;;38.10;;
63975;SDS011;50167;47.958;21.780;2022-11-15T23:34:37;58.80;;;36.97;;
63975;SDS011;50167;47.958;21.780;2022-11-15T23:37:12;54.23;;;37.53;;
63975;SDS011;50167;47.958;21.780;2022-11-15T23:39:39;53.23;;;35.47;;
63975;SDS011;50167;47.958;21.780;2022-11-15T23:42:05;52.77;;;36.67;;
63975;SDS011;50167;47.958;21.780;2022-11-15T23:44:32;51.83;;;35.07;;
63975;SDS011;50167;47.958;21.780;2022-11-15T23:46:58;48.80;;;35.63;;
63975;SDS011;50167;47.958;21.780;2022-11-15T23:49:24;53.97;;;35.43;;
63975;SDS011;50167;47.958;21.780;2022-11-15T23:51:50;47.20;;;34.70;;
63975;SDS011;50167;47.958;21.780;2022-11-15T23:54:17;54.40;;;35.93;;
63975;SDS011;50167;47.958;21.780;2022-11-15T23:56:43;54.20;;;36.30;;
63975;SDS011;50167;47.958;21.780;2022-11-15T23:59:09;55.77;;;35.63;;
